sensor_id;sensor_type;location;lat;lon;timestamp;temperature;humidity
9939;DHT22;5008;50.656;7.188;2023-04-30T04:02:23;7.70;99.90
9939;DHT22;5008;50.656;7.188;2023-04-30T04:04:50;7.70;99.90
9939;DHT22;5008;50.656;7.188;2023-04-30T04:07:17;7.70;99.90
9939;DHT22;5008;50.656;7.188;2023-04-30T04:09:44;7.70;99.90
9939;DHT22;5008;50.656;7.188;2023-04-30T04:12:10;7.70;99.90
9939;DHT22;5008;50.656;7.188;2023-04-30T04:14:37;7.70;99.90
9939;DHT22;5008;50.656;7.188;2023-04-30T04:17:04;7.80;99.90
9939;DHT22;5008;50.656;7.188;2023-04-30T04:19:32;7.80;99.90
9939;DHT22;5008;50.656;7.188;2023-04-30T04:21:59;7.80;99.90
9939;DHT22;5008;50.656;7.188;2023-04-30T04:24:28;7.70;99.90
9939;DHT22;5008;50.656;7.188;2023-04-30T04:26:55;7.80;99.90
9939;DHT22;5008;50.656;7.188;2023-04-30T04:29:22;7.90;99.90
9939;DHT22;5008;50.656;7.188;2023-04-30T04:31:49;7.80;99.90
9939;DHT22;5008;50.656;7.188;2023-04-30T04:34:16;7.80;99.90
9939;DHT22;5008;50.656;7.188;2023-04-30T04:36:45;7.90;99.90
9939;DHT22;5008;50.656;7.188;2023-04-30T04:39:12;8.00;99.90
9939;DHT22;5008;50.656;7.188;2023-04-30T04:41:39;8.00;99.90
9939;DHT22;5008;50.656;7.188;2023-04-30T04:44:07;8.00;99.90
9939;DHT22;5008;50.656;7.188;2023-04-30T04:46:34;8.00;99.90
9939;DHT22;5008;50.656;7.188;2023-04-30T04:49:02;8.00;99.90
9939;DHT22;5008;50.656;7.188;2023-04-30T04:51:30;8.00;99.90
9939;DHT22;5008;50.656;7.188;2023-04-30T04:53:58;8.10;99.90
9939;DHT22;5008;50.656;7.188;2023-04-30T04:56:25;8.10;99.90
9939;DHT22;5008;50.656;7.188;2023-04-30T04:58:52;8.10;99.90
9939;DHT22;5008;50.656;7.188;2023-04-30T05:01:19;8.10;99.90
9939;DHT22;5008;50.656;7.188;2023-04-30T05:03:46;8.10;99.90
9939;DHT22;5008;50.656;7.188;2023-04-30T05:06:13;8.20;99.90
9939;DHT22;5008;50.656;7.188;2023-04-30T05:08:40;8.20;99.90
9939;DHT22;5008;50.656;7.188;2023-04-30T05:11:08;8.30;99.90
9939;DHT22;5008;50.656;7.188;2023-04-30T05:13:35;8.30;99.90
9939;DHT22;5008;50.656;7.188;2023-04-30T05:16:02;8.40;99.90
9939;DHT22;5008;50.656;7.188;2023-04-30T05:18:29;8.40;99.90
9939;DHT22;5008;50.656;7.188;2023-04-30T05:20:55;8.40;99.90
9939;DHT22;5008;50.656;7.188;2023-04-30T05:23:22;8.40;99.90
9939;DHT22;5008;50.656;7.188;2023-04-30T05:25:50;8.30;99.90
9939;DHT22;5008;50.656;7.188;2023-04-30T05:28:19;8.40;99.90
9939;DHT22;5008;50.656;7.188;2023-04-30T05:30:45;8.40;99.90
9939;DHT22;5008;50.656;7.188;2023-04-30T05:33:12;8.50;99.90
9939;DHT22;5008;50.656;7.188;2023-04-30T05:35:39;8.50;99.90
9939;DHT22;5008;50.656;7.188;2023-04-30T05:38:06;8.50;99.90
9939;DHT22;5008;50.656;7.188;2023-04-30T05:40:33;8.60;99.90
9939;DHT22;5008;50.656;7.188;2023-04-30T05:42:59;8.50;99.90
9939;DHT22;5008;50.656;7.188;2023-04-30T05:45:28;8.60;99.90
9939;DHT22;5008;50.656;7.188;2023-04-30T05:47:54;8.60;99.90
9939;DHT22;5008;50.656;7.188;2023-04-30T05:50:21;8.70;99.90
9939;DHT22;5008;50.656;7.188;2023-04-30T05:52:48;8.80;99.90
9939;DHT22;5008;50.656;7.188;2023-04-30T05:55:15;8.90;99.90
9939;DHT22;5008;50.656;7.188;2023-04-30T05:57:42;9.00;99.90
9939;DHT22;5008;50.656;7.188;2023-04-30T06:00:09;9.00;99.90
9939;DHT22;5008;50.656;7.188;2023-04-30T06:02:38;9.00;99.90
9939;DHT22;5008;50.656;7.188;2023-04-30T06:05:07;9.00;99.90
9939;DHT22;5008;50.656;7.188;2023-04-30T06:07:34;9.00;99.90
9939;DHT22;5008;50.656;7.188;2023-04-30T06:10:01;9.10;99.90
9939;DHT22;5008;50.656;7.188;2023-04-30T06:12:28;9.10;99.90
9939;DHT22;5008;50.656;7.188;2023-04-30T06:14:55;9.10;99.90
9939;DHT22;5008;50.656;7.188;2023-04-30T06:17:22;9.20;99.90
9939;DHT22;5008;50.656;7.188;2023-04-30T06:19:50;9.20;99.90
9939;DHT22;5008;50.656;7.188;2023-04-30T06:22:17;9.20;99.90
9939;DHT22;5008;50.656;7.188;2023-04-30T06:24:44;9.20;99.90
9939;DHT22;5008;50.656;7.188;2023-04-30T06:27:11;9.30;99.90
9939;DHT22;5008;50.656;7.188;2023-04-30T06:29:37;9.40;99.90
9939;DHT22;5008;50.656;7.188;2023-04-30T06:32:05;9.40;99.90
9939;DHT22;5008;50.656;7.188;2023-04-30T06:34:32;9.50;99.90
9939;DHT22;5008;50.656;7.188;2023-04-30T06:37:00;9.50;99.90
9939;DHT22;5008;50.656;7.188;2023-04-30T06:39:26;9.50;99.90
9939;DHT22;5008;50.656;7.188;2023-04-30T06:41:53;9.50;99.90
9939;DHT22;5008;50.656;7.188;2023-04-30T06:44:20;9.60;99.90
9939;DHT22;5008;50.656;7.188;2023-04-30T06:46:47;9.60;99.90
9939;DHT22;5008;50.656;7.188;2023-04-30T06:49:13;9.70;99.90
9939;DHT22;5008;50.656;7.188;2023-04-30T06:51:41;9.60;99.90
9939;DHT22;5008;50.656;7.188;2023-04-30T06:54:09;9.70;99.90
9939;DHT22;5008;50.656;7.188;2023-04-30T06:56:36;9.70;99.90
9939;DHT22;5008;50.656;7.188;2023-04-30T06:59:02;9.70;99.90
9939;DHT22;5008;50.656;7.188;2023-04-30T07:01:29;9.80;99.90
9939;DHT22;5008;50.656;7.188;2023-04-30T07:03:56;9.80;99.90
9939;DHT22;5008;50.656;7.188;2023-04-30T07:06:23;9.80;99.90
9939;DHT22;5008;50.656;7.188;2023-04-30T07:08:50;10.00;99.90
9939;DHT22;5008;50.656;7.188;2023-04-30T07:11:18;10.00;99.90
9939;DHT22;5008;50.656;7.188;2023-04-30T07:13:45;10.10;99.90
9939;DHT22;5008;50.656;7.188;2023-04-30T07:16:11;10.10;99.90
9939;DHT22;5008;50.656;7.188;2023-04-30T07:18:38;10.10;99.90
9939;DHT22;5008;50.656;7.188;2023-04-30T07:21:05;10.10;99.90
9939;DHT22;5008;50.656;7.188;2023-04-30T07:23:33;10.20;99.90
9939;DHT22;5008;50.656;7.188;2023-04-30T07:26:00;10.20;99.90
9939;DHT22;5008;50.656;7.188;2023-04-30T07:28:28;10.20;99.90
9939;DHT22;5008;50.656;7.188;2023-04-30T07:30:55;10.30;99.90
9939;DHT22;5008;50.656;7.188;2023-04-30T07:33:21;10.30;99.90
9939;DHT22;5008;50.656;7.188;2023-04-30T07:35:48;10.40;99.90
9939;DHT22;5008;50.656;7.188;2023-04-30T07:38:16;10.50;99.90
9939;DHT22;5008;50.656;7.188;2023-04-30T07:40:43;10.50;99.90
9939;DHT22;5008;50.656;7.188;2023-04-30T07:43:10;10.60;99.90
9939;DHT22;5008;50.656;7.188;2023-04-30T07:45:38;10.70;99.90
9939;DHT22;5008;50.656;7.188;2023-04-30T07:48:06;10.70;99.90
9939;DHT22;5008;50.656;7.188;2023-04-30T07:50:33;10.80;99.90
9939;DHT22;5008;50.656;7.188;2023-04-30T07:53:00;10.90;99.90
9939;DHT22;5008;50.656;7.188;2023-04-30T07:55:27;10.90;99.90
9939;DHT22;5008;50.656;7.188;2023-04-30T07:57:54;11.00;99.90
9939;DHT22;5008;50.656;7.188;2023-04-30T08:00:21;11.00;99.90
9939;DHT22;5008;50.656;7.188;2023-04-30T08:02:52;11.00;99.90
9939;DHT22;5008;50.656;7.188;2023-04-30T08:05:19;11.10;99.90
9939;DHT22;5008;50.656;7.188;2023-04-30T08:07:45;11.20;99.90
9939;DHT22;5008;50.656;7.188;2023-04-30T08:10:12;11.20;99.90
9939;DHT22;5008;50.656;7.188;2023-04-30T08:12:39;11.30;99.90
9939;DHT22;5008;50.656;7.188;2023-04-30T08:15:06;11.40;99.90
9939;DHT22;5008;50.656;7.188;2023-04-30T08:17:34;11.50;99.90
9939;DHT22;5008;50.656;7.188;2023-04-30T08:20:03;11.50;99.90
9939;DHT22;5008;50.656;7.188;2023-04-30T08:22:30;11.60;99.90
9939;DHT22;5008;50.656;7.188;2023-04-30T08:24:57;11.70;99.90
9939;DHT22;5008;50.656;7.188;2023-04-30T08:27:26;11.80;99.90
9939;DHT22;5008;50.656;7.188;2023-04-30T08:29:53;11.90;99.90
9939;DHT22;5008;50.656;7.188;2023-04-30T08:32:19;12.00;99.90
9939;DHT22;5008;50.656;7.188;2023-04-30T08:34:47;12.10;99.90
9939;DHT22;5008;50.656;7.188;2023-04-30T08:37:15;12.30;99.90
9939;DHT22;5008;50.656;7.188;2023-04-30T08:39:41;12.40;99.90
9939;DHT22;5008;50.656;7.188;2023-04-30T08:42:09;12.40;99.90
9939;DHT22;5008;50.656;7.188;2023-04-30T08:44:39;12.50;99.90
9939;DHT22;5008;50.656;7.188;2023-04-30T08:47:10;12.60;99.90
9939;DHT22;5008;50.656;7.188;2023-04-30T08:49:39;12.60;99.90
9939;DHT22;5008;50.656;7.188;2023-04-30T08:52:06;12.70;99.90
9939;DHT22;5008;50.656;7.188;2023-04-30T08:54:34;12.80;99.90
9939;DHT22;5008;50.656;7.188;2023-04-30T08:57:01;12.90;99.90
9939;DHT22;5008;50.656;7.188;2023-04-30T08:59:29;13.00;99.90
9939;DHT22;5008;50.656;7.188;2023-04-30T09:01:56;13.10;99.90
9939;DHT22;5008;50.656;7.188;2023-04-30T09:04:22;13.20;99.90
9939;DHT22;5008;50.656;7.188;2023-04-30T09:06:51;13.20;99.90
9939;DHT22;5008;50.656;7.188;2023-04-30T09:09:27;13.40;99.90
9939;DHT22;5008;50.656;7.188;2023-04-30T09:12:10;13.50;99.90
9939;DHT22;5008;50.656;7.188;2023-04-30T09:14:37;13.60;99.90
9939;DHT22;5008;50.656;7.188;2023-04-30T09:17:05;13.60;99.90
9939;DHT22;5008;50.656;7.188;2023-04-30T09:19:33;13.70;99.90
9939;DHT22;5008;50.656;7.188;2023-04-30T09:22:18;13.80;99.90
9939;DHT22;5008;50.656;7.188;2023-04-30T09:24:45;13.90;99.90
9939;DHT22;5008;50.656;7.188;2023-04-30T09:27:16;14.00;99.90
9939;DHT22;5008;50.656;7.188;2023-04-30T09:29:44;14.10;99.90
9939;DHT22;5008;50.656;7.188;2023-04-30T09:32:11;14.20;99.90
9939;DHT22;5008;50.656;7.188;2023-04-30T09:34:40;14.30;99.90
9939;DHT22;5008;50.656;7.188;2023-04-30T09:37:08;14.50;99.90
9939;DHT22;5008;50.656;7.188;2023-04-30T09:39:46;14.60;99.90
9939;DHT22;5008;50.656;7.188;2023-04-30T09:42:13;14.60;99.90
9939;DHT22;5008;50.656;7.188;2023-04-30T09:44:42;14.70;99.90
9939;DHT22;5008;50.656;7.188;2023-04-30T09:47:13;14.80;99.90
9939;DHT22;5008;50.656;7.188;2023-04-30T09:49:41;14.80;99.90
9939;DHT22;5008;50.656;7.188;2023-04-30T09:52:09;14.80;99.90
9939;DHT22;5008;50.656;7.188;2023-04-30T09:54:37;14.90;99.90
9939;DHT22;5008;50.656;7.188;2023-04-30T09:57:04;15.00;99.90
9939;DHT22;5008;50.656;7.188;2023-04-30T09:59:35;15.10;99.90
9939;DHT22;5008;50.656;7.188;2023-04-30T10:02:06;15.20;99.90
9939;DHT22;5008;50.656;7.188;2023-04-30T10:04:34;15.30;99.90
9939;DHT22;5008;50.656;7.188;2023-04-30T10:07:04;15.40;99.90
9939;DHT22;5008;50.656;7.188;2023-04-30T10:09:38;15.50;99.90
9939;DHT22;5008;50.656;7.188;2023-04-30T10:12:11;15.60;99.90
9939;DHT22;5008;50.656;7.188;2023-04-30T10:14:41;15.70;99.90
9939;DHT22;5008;50.656;7.188;2023-04-30T10:17:13;15.80;99.90
9939;DHT22;5008;50.656;7.188;2023-04-30T10:19:45;15.90;99.90
9939;DHT22;5008;50.656;7.188;2023-04-30T10:22:14;16.00;99.90
9939;DHT22;5008;50.656;7.188;2023-04-30T10:24:42;16.10;99.90
9939;DHT22;5008;50.656;7.188;2023-04-30T10:27:09;16.10;99.90
9939;DHT22;5008;50.656;7.188;2023-04-30T10:29:36;16.10;99.90
9939;DHT22;5008;50.656;7.188;2023-04-30T10:32:03;16.30;99.90
9939;DHT22;5008;50.656;7.188;2023-04-30T10:34:37;16.30;99.90
9939;DHT22;5008;50.656;7.188;2023-04-30T10:37:14;16.30;99.90
9939;DHT22;5008;50.656;7.188;2023-04-30T10:39:43;16.40;98.80
9939;DHT22;5008;50.656;7.188;2023-04-30T10:42:10;16.50;99.10
9939;DHT22;5008;50.656;7.188;2023-04-30T10:44:38;16.60;98.60
9939;DHT22;5008;50.656;7.188;2023-04-30T10:47:05;16.60;99.90
9939;DHT22;5008;50.656;7.188;2023-04-30T10:49:34;16.70;99.90
9939;DHT22;5008;50.656;7.188;2023-04-30T10:52:02;16.90;98.90
9939;DHT22;5008;50.656;7.188;2023-04-30T10:54:30;16.90;99.60
9939;DHT22;5008;50.656;7.188;2023-04-30T10:57:09;17.20;98.40
9939;DHT22;5008;50.656;7.188;2023-04-30T10:59:40;17.30;98.40
9939;DHT22;5008;50.656;7.188;2023-04-30T11:02:10;17.30;99.90
9939;DHT22;5008;50.656;7.188;2023-04-30T11:05:09;17.30;99.90
9939;DHT22;5008;50.656;7.188;2023-04-30T11:07:36;17.50;98.70
9939;DHT22;5008;50.656;7.188;2023-04-30T11:10:06;17.60;99.90
9939;DHT22;5008;50.656;7.188;2023-04-30T11:12:40;17.60;99.90
9939;DHT22;5008;50.656;7.188;2023-04-30T11:15:12;17.60;98.80
9939;DHT22;5008;50.656;7.188;2023-04-30T11:17:39;17.80;98.20
9939;DHT22;5008;50.656;7.188;2023-04-30T11:20:12;18.00;98.60
9939;DHT22;5008;50.656;7.188;2023-04-30T11:22:40;18.30;98.30
9939;DHT22;5008;50.656;7.188;2023-04-30T11:25:08;18.10;99.90
9939;DHT22;5008;50.656;7.188;2023-04-30T11:27:36;18.00;99.80
9939;DHT22;5008;50.656;7.188;2023-04-30T11:30:10;18.10;99.90
9939;DHT22;5008;50.656;7.188;2023-04-30T11:32:38;18.00;99.90
9939;DHT22;5008;50.656;7.188;2023-04-30T11:35:06;18.20;96.30
9939;DHT22;5008;50.656;7.188;2023-04-30T11:37:36;18.30;96.50
9939;DHT22;5008;50.656;7.188;2023-04-30T11:40:05;18.70;98.30
9939;DHT22;5008;50.656;7.188;2023-04-30T11:42:33;18.80;97.30
9939;DHT22;5008;50.656;7.188;2023-04-30T11:45:05;18.80;97.70
9939;DHT22;5008;50.656;7.188;2023-04-30T11:47:39;19.00;95.50
9939;DHT22;5008;50.656;7.188;2023-04-30T11:50:07;19.10;97.90
9939;DHT22;5008;50.656;7.188;2023-04-30T11:52:36;18.90;99.10
9939;DHT22;5008;50.656;7.188;2023-04-30T11:55:11;18.80;98.10
9939;DHT22;5008;50.656;7.188;2023-04-30T11:57:40;19.00;95.50
9939;DHT22;5008;50.656;7.188;2023-04-30T12:00:11;19.10;95.40
9939;DHT22;5008;50.656;7.188;2023-04-30T12:02:38;19.30;93.80
9939;DHT22;5008;50.656;7.188;2023-04-30T12:05:11;19.10;97.90
9939;DHT22;5008;50.656;7.188;2023-04-30T12:07:43;19.10;96.60
9939;DHT22;5008;50.656;7.188;2023-04-30T12:10:11;19.30;98.20
9939;DHT22;5008;50.656;7.188;2023-04-30T12:12:38;19.20;97.90
9939;DHT22;5008;50.656;7.188;2023-04-30T12:15:13;19.30;97.90
9939;DHT22;5008;50.656;7.188;2023-04-30T12:17:40;19.30;98.90
9939;DHT22;5008;50.656;7.188;2023-04-30T12:20:09;19.60;96.20
9939;DHT22;5008;50.656;7.188;2023-04-30T12:22:36;20.00;94.10
9939;DHT22;5008;50.656;7.188;2023-04-30T12:25:08;20.10;96.60
9939;DHT22;5008;50.656;7.188;2023-04-30T12:27:36;20.10;95.00
9939;DHT22;5008;50.656;7.188;2023-04-30T12:30:05;20.50;94.20
9939;DHT22;5008;50.656;7.188;2023-04-30T12:32:37;20.80;93.20
9939;DHT22;5008;50.656;7.188;2023-04-30T12:35:05;20.70;92.60
9939;DHT22;5008;50.656;7.188;2023-04-30T12:37:32;20.40;93.60
9939;DHT22;5008;50.656;7.188;2023-04-30T12:39:59;20.20;94.20
9939;DHT22;5008;50.656;7.188;2023-04-30T12:42:32;20.20;92.80
9939;DHT22;5008;50.656;7.188;2023-04-30T12:45:00;20.30;93.00
9939;DHT22;5008;50.656;7.188;2023-04-30T12:47:28;20.70;95.10
9939;DHT22;5008;50.656;7.188;2023-04-30T12:49:55;21.30;92.80
9939;DHT22;5008;50.656;7.188;2023-04-30T12:52:23;21.10;95.00
9939;DHT22;5008;50.656;7.188;2023-04-30T12:54:50;21.30;93.90
9939;DHT22;5008;50.656;7.188;2023-04-30T12:57:17;21.40;93.50
9939;DHT22;5008;50.656;7.188;2023-04-30T12:59:58;21.20;95.40
9939;DHT22;5008;50.656;7.188;2023-04-30T13:02:26;20.90;94.10
9939;DHT22;5008;50.656;7.188;2023-04-30T13:04:55;20.70;94.30
9939;DHT22;5008;50.656;7.188;2023-04-30T13:07:22;20.10;94.40
9939;DHT22;5008;50.656;7.188;2023-04-30T13:09:49;19.90;95.70
9939;DHT22;5008;50.656;7.188;2023-04-30T13:12:16;19.40;94.70
9939;DHT22;5008;50.656;7.188;2023-04-30T13:14:43;19.40;93.80
9939;DHT22;5008;50.656;7.188;2023-04-30T13:17:12;19.40;93.30
9939;DHT22;5008;50.656;7.188;2023-04-30T13:19:38;20.20;93.70
9939;DHT22;5008;50.656;7.188;2023-04-30T13:22:06;20.90;91.20
9939;DHT22;5008;50.656;7.188;2023-04-30T13:24:33;20.80;91.10
9939;DHT22;5008;50.656;7.188;2023-04-30T13:26:59;20.50;94.50
9939;DHT22;5008;50.656;7.188;2023-04-30T13:29:27;20.20;92.20
9939;DHT22;5008;50.656;7.188;2023-04-30T13:31:54;20.20;92.20
9939;DHT22;5008;50.656;7.188;2023-04-30T13:34:22;19.80;92.60
9939;DHT22;5008;50.656;7.188;2023-04-30T13:36:48;20.30;92.80
9939;DHT22;5008;50.656;7.188;2023-04-30T13:39:16;21.20;93.00
9939;DHT22;5008;50.656;7.188;2023-04-30T13:41:44;22.20;91.20
9939;DHT22;5008;50.656;7.188;2023-04-30T13:44:12;22.20;91.50
9939;DHT22;5008;50.656;7.188;2023-04-30T13:46:39;22.90;91.40
9939;DHT22;5008;50.656;7.188;2023-04-30T13:49:05;23.40;91.70
9939;DHT22;5008;50.656;7.188;2023-04-30T13:51:33;24.40;89.00
9939;DHT22;5008;50.656;7.188;2023-04-30T13:54:00;24.50;85.40
9939;DHT22;5008;50.656;7.188;2023-04-30T13:56:28;24.40;89.90
9939;DHT22;5008;50.656;7.188;2023-04-30T13:58:54;24.10;87.70
9939;DHT22;5008;50.656;7.188;2023-04-30T14:01:21;23.30;88.20
9939;DHT22;5008;50.656;7.188;2023-04-30T14:03:48;23.00;85.10
9939;DHT22;5008;50.656;7.188;2023-04-30T14:06:15;22.90;84.00
9939;DHT22;5008;50.656;7.188;2023-04-30T14:08:43;23.30;87.20
9939;DHT22;5008;50.656;7.188;2023-04-30T14:11:09;23.20;86.00
9939;DHT22;5008;50.656;7.188;2023-04-30T14:13:36;22.80;86.40
9939;DHT22;5008;50.656;7.188;2023-04-30T14:16:03;23.00;90.30
9939;DHT22;5008;50.656;7.188;2023-04-30T14:18:30;23.40;86.70
9939;DHT22;5008;50.656;7.188;2023-04-30T14:20:57;23.90;86.90
9939;DHT22;5008;50.656;7.188;2023-04-30T14:23:24;23.70;87.10
9939;DHT22;5008;50.656;7.188;2023-04-30T14:25:54;22.60;88.90
9939;DHT22;5008;50.656;7.188;2023-04-30T14:28:21;21.60;91.20
9939;DHT22;5008;50.656;7.188;2023-04-30T14:30:48;21.30;83.80
9939;DHT22;5008;50.656;7.188;2023-04-30T14:33:15;21.20;91.70
9939;DHT22;5008;50.656;7.188;2023-04-30T14:35:41;22.00;90.90
9939;DHT22;5008;50.656;7.188;2023-04-30T14:38:10;23.20;89.70
9939;DHT22;5008;50.656;7.188;2023-04-30T14:40:36;23.80;85.50
9939;DHT22;5008;50.656;7.188;2023-04-30T14:43:05;24.40;82.30
9939;DHT22;5008;50.656;7.188;2023-04-30T14:45:32;24.00;85.40
9939;DHT22;5008;50.656;7.188;2023-04-30T14:47:59;23.50;86.10
9939;DHT22;5008;50.656;7.188;2023-04-30T14:50:26;22.60;87.30
9939;DHT22;5008;50.656;7.188;2023-04-30T14:52:52;21.60;90.70
9939;DHT22;5008;50.656;7.188;2023-04-30T14:55:19;21.00;90.00
9939;DHT22;5008;50.656;7.188;2023-04-30T14:57:46;20.40;87.30
9939;DHT22;5008;50.656;7.188;2023-04-30T15:00:16;19.80;92.10
9939;DHT22;5008;50.656;7.188;2023-04-30T15:02:42;19.60;91.10
9939;DHT22;5008;50.656;7.188;2023-04-30T15:05:09;19.90;91.20
9939;DHT22;5008;50.656;7.188;2023-04-30T15:07:36;20.40;90.40
9939;DHT22;5008;50.656;7.188;2023-04-30T15:10:04;21.10;91.80
9939;DHT22;5008;50.656;7.188;2023-04-30T15:12:31;22.20;90.00
9939;DHT22;5008;50.656;7.188;2023-04-30T15:14:58;22.90;90.70
9939;DHT22;5008;50.656;7.188;2023-04-30T15:17:27;23.50;86.90
9939;DHT22;5008;50.656;7.188;2023-04-30T15:19:54;23.30;89.20
9939;DHT22;5008;50.656;7.188;2023-04-30T15:22:21;22.80;88.80
9939;DHT22;5008;50.656;7.188;2023-04-30T15:24:48;22.10;89.80
9939;DHT22;5008;50.656;7.188;2023-04-30T15:27:15;21.40;85.20
9939;DHT22;5008;50.656;7.188;2023-04-30T15:29:42;21.00;90.00
9939;DHT22;5008;50.656;7.188;2023-04-30T15:32:11;20.50;90.00
9939;DHT22;5008;50.656;7.188;2023-04-30T15:34:39;20.20;85.00
9939;DHT22;5008;50.656;7.188;2023-04-30T15:37:07;19.90;88.00
9939;DHT22;5008;50.656;7.188;2023-04-30T15:39:33;19.60;91.40
9939;DHT22;5008;50.656;7.188;2023-04-30T15:42:00;19.60;89.50
9939;DHT22;5008;50.656;7.188;2023-04-30T15:44:27;19.30;91.40
9939;DHT22;5008;50.656;7.188;2023-04-30T15:46:54;19.30;90.80
9939;DHT22;5008;50.656;7.188;2023-04-30T15:49:21;19.20;87.60
9939;DHT22;5008;50.656;7.188;2023-04-30T15:51:50;19.20;89.40
9939;DHT22;5008;50.656;7.188;2023-04-30T15:54:17;19.10;90.60
9939;DHT22;5008;50.656;7.188;2023-04-30T15:56:43;18.90;92.90
9939;DHT22;5008;50.656;7.188;2023-04-30T15:59:10;18.80;91.50
9939;DHT22;5008;50.656;7.188;2023-04-30T16:01:40;18.70;93.00
9939;DHT22;5008;50.656;7.188;2023-04-30T16:04:07;18.70;91.40
9939;DHT22;5008;50.656;7.188;2023-04-30T16:06:34;18.80;92.40
9939;DHT22;5008;50.656;7.188;2023-04-30T16:09:02;18.70;90.40
9939;DHT22;5008;50.656;7.188;2023-04-30T16:11:32;18.90;90.40
9939;DHT22;5008;50.656;7.188;2023-04-30T16:13:58;18.90;90.90
9939;DHT22;5008;50.656;7.188;2023-04-30T16:16:25;19.10;88.30
9939;DHT22;5008;50.656;7.188;2023-04-30T16:18:52;19.10;91.90
9939;DHT22;5008;50.656;7.188;2023-04-30T16:21:20;19.10;90.50
9939;DHT22;5008;50.656;7.188;2023-04-30T16:23:48;20.00;94.30
9939;DHT22;5008;50.656;7.188;2023-04-30T16:26:16;21.70;92.60
9939;DHT22;5008;50.656;7.188;2023-04-30T16:28:44;22.10;91.60
9939;DHT22;5008;50.656;7.188;2023-04-30T16:31:11;22.00;89.50
9939;DHT22;5008;50.656;7.188;2023-04-30T16:33:40;21.60;86.90
9939;DHT22;5008;50.656;7.188;2023-04-30T16:36:07;21.60;85.90
9939;DHT22;5008;50.656;7.188;2023-04-30T16:38:34;21.20;89.80
9939;DHT22;5008;50.656;7.188;2023-04-30T16:41:01;20.70;90.40
9939;DHT22;5008;50.656;7.188;2023-04-30T16:43:29;20.40;90.70
9939;DHT22;5008;50.656;7.188;2023-04-30T16:45:56;20.10;90.50
9939;DHT22;5008;50.656;7.188;2023-04-30T16:48:23;19.80;90.70
9939;DHT22;5008;50.656;7.188;2023-04-30T16:50:50;19.80;89.90
9939;DHT22;5008;50.656;7.188;2023-04-30T16:53:16;19.70;89.00
9939;DHT22;5008;50.656;7.188;2023-04-30T16:55:43;19.60;90.20
9939;DHT22;5008;50.656;7.188;2023-04-30T16:58:10;19.50;91.70
9939;DHT22;5008;50.656;7.188;2023-04-30T17:00:38;19.30;91.60
9939;DHT22;5008;50.656;7.188;2023-04-30T17:03:05;19.20;91.50
9939;DHT22;5008;50.656;7.188;2023-04-30T17:05:32;19.40;91.00
9939;DHT22;5008;50.656;7.188;2023-04-30T17:07:59;19.30;91.70
9939;DHT22;5008;50.656;7.188;2023-04-30T17:10:25;19.10;93.40
9939;DHT22;5008;50.656;7.188;2023-04-30T17:12:54;19.00;93.90
9939;DHT22;5008;50.656;7.188;2023-04-30T17:15:23;18.90;91.90
9939;DHT22;5008;50.656;7.188;2023-04-30T17:17:51;18.90;91.20
9939;DHT22;5008;50.656;7.188;2023-04-30T17:20:18;18.80;91.80
9939;DHT22;5008;50.656;7.188;2023-04-30T17:22:45;18.80;90.60
9939;DHT22;5008;50.656;7.188;2023-04-30T17:25:12;18.80;91.70
9939;DHT22;5008;50.656;7.188;2023-04-30T17:27:40;18.70;92.50
9939;DHT22;5008;50.656;7.188;2023-04-30T17:30:08;18.60;90.90
9939;DHT22;5008;50.656;7.188;2023-04-30T17:32:35;18.70;89.90
9939;DHT22;5008;50.656;7.188;2023-04-30T17:35:04;18.60;89.80
9939;DHT22;5008;50.656;7.188;2023-04-30T17:37:31;18.60;91.70
9939;DHT22;5008;50.656;7.188;2023-04-30T17:39:59;18.50;90.90
9939;DHT22;5008;50.656;7.188;2023-04-30T17:42:26;18.50;90.60
9939;DHT22;5008;50.656;7.188;2023-04-30T17:44:55;18.40;91.50
9939;DHT22;5008;50.656;7.188;2023-04-30T17:47:21;18.30;92.90
9939;DHT22;5008;50.656;7.188;2023-04-30T17:49:48;18.20;93.90
9939;DHT22;5008;50.656;7.188;2023-04-30T17:52:17;18.10;92.50
9939;DHT22;5008;50.656;7.188;2023-04-30T17:54:44;18.10;90.80
9939;DHT22;5008;50.656;7.188;2023-04-30T17:57:10;18.10;90.90
9939;DHT22;5008;50.656;7.188;2023-04-30T17:59:38;18.10;91.00
9939;DHT22;5008;50.656;7.188;2023-04-30T18:02:05;18.00;90.30
9939;DHT22;5008;50.656;7.188;2023-04-30T18:04:32;17.90;91.10
9939;DHT22;5008;50.656;7.188;2023-04-30T18:06:59;17.90;90.50
9939;DHT22;5008;50.656;7.188;2023-04-30T18:09:27;17.80;91.00
9939;DHT22;5008;50.656;7.188;2023-04-30T18:11:55;17.70;90.90
9939;DHT22;5008;50.656;7.188;2023-04-30T18:14:21;17.60;91.10
9939;DHT22;5008;50.656;7.188;2023-04-30T18:16:48;17.50;91.90
9939;DHT22;5008;50.656;7.188;2023-04-30T18:19:15;17.30;92.20
9939;DHT22;5008;50.656;7.188;2023-04-30T18:21:43;17.20;92.70
9939;DHT22;5008;50.656;7.188;2023-04-30T18:24:10;17.10;92.70
9939;DHT22;5008;50.656;7.188;2023-04-30T18:26:38;17.00;92.80
9939;DHT22;5008;50.656;7.188;2023-04-30T18:29:04;16.90;92.80
9939;DHT22;5008;50.656;7.188;2023-04-30T18:31:32;16.80;93.30
9939;DHT22;5008;50.656;7.188;2023-04-30T18:34:01;16.70;93.60
9939;DHT22;5008;50.656;7.188;2023-04-30T18:36:28;16.50;93.80
9939;DHT22;5008;50.656;7.188;2023-04-30T18:38:55;16.40;94.00
9939;DHT22;5008;50.656;7.188;2023-04-30T18:41:22;16.20;94.20
9939;DHT22;5008;50.656;7.188;2023-04-30T18:43:52;16.10;94.80
9939;DHT22;5008;50.656;7.188;2023-04-30T18:46:19;16.00;95.50
9939;DHT22;5008;50.656;7.188;2023-04-30T18:48:47;15.90;95.90
9939;DHT22;5008;50.656;7.188;2023-04-30T18:51:14;15.70;96.10
9939;DHT22;5008;50.656;7.188;2023-04-30T18:53:41;15.60;96.00
9939;DHT22;5008;50.656;7.188;2023-04-30T18:56:09;15.50;96.60
9939;DHT22;5008;50.656;7.188;2023-04-30T18:58:36;15.40;96.80
9939;DHT22;5008;50.656;7.188;2023-04-30T19:01:05;15.30;96.90
9939;DHT22;5008;50.656;7.188;2023-04-30T19:03:32;15.20;96.40
9939;DHT22;5008;50.656;7.188;2023-04-30T19:05:59;15.10;96.60
9939;DHT22;5008;50.656;7.188;2023-04-30T19:08:26;15.00;97.00
9939;DHT22;5008;50.656;7.188;2023-04-30T19:10:53;14.90;97.50
9939;DHT22;5008;50.656;7.188;2023-04-30T19:13:20;14.80;98.00
9939;DHT22;5008;50.656;7.188;2023-04-30T19:15:47;14.60;98.70
9939;DHT22;5008;50.656;7.188;2023-04-30T19:18:15;14.50;99.20
9939;DHT22;5008;50.656;7.188;2023-04-30T19:20:42;14.50;99.60
9939;DHT22;5008;50.656;7.188;2023-04-30T19:23:09;14.40;99.90
9939;DHT22;5008;50.656;7.188;2023-04-30T19:25:36;14.30;99.90
9939;DHT22;5008;50.656;7.188;2023-04-30T19:28:03;14.20;99.90
9939;DHT22;5008;50.656;7.188;2023-04-30T19:30:30;14.10;99.90
9939;DHT22;5008;50.656;7.188;2023-04-30T19:32:57;14.10;99.90
9939;DHT22;5008;50.656;7.188;2023-04-30T19:35:25;14.00;99.90
9939;DHT22;5008;50.656;7.188;2023-04-30T19:37:52;13.90;99.90
9939;DHT22;5008;50.656;7.188;2023-04-30T19:40:19;13.90;99.90
9939;DHT22;5008;50.656;7.188;2023-04-30T19:42:46;13.70;99.90
9939;DHT22;5008;50.656;7.188;2023-04-30T19:45:13;13.60;99.90
9939;DHT22;5008;50.656;7.188;2023-04-30T19:47:40;13.60;99.90
9939;DHT22;5008;50.656;7.188;2023-04-30T19:50:07;13.50;99.90
9939;DHT22;5008;50.656;7.188;2023-04-30T19:52:36;13.40;99.90
9939;DHT22;5008;50.656;7.188;2023-04-30T19:55:03;13.40;99.90
9939;DHT22;5008;50.656;7.188;2023-04-30T19:57:29;13.30;99.90
9939;DHT22;5008;50.656;7.188;2023-04-30T19:59:59;13.20;99.90
9939;DHT22;5008;50.656;7.188;2023-04-30T20:02:27;13.20;99.90
9939;DHT22;5008;50.656;7.188;2023-04-30T20:04:53;13.10;99.90
9939;DHT22;5008;50.656;7.188;2023-04-30T20:07:21;13.10;99.90
9939;DHT22;5008;50.656;7.188;2023-04-30T20:09:49;13.00;99.90